»·PEaware :: RNGR808 KNGP-KCLL

RNGR808 :: KNGP-KCLL

FLIGHT INFORMATION

Flight Status: Arrived
Operator: Unknown
More flights by this operator :: More flights under this callsign
Pilot: USN Avenger (31125)
Aircraft: BEECH AIRCRAFT T-6A TEXAN
(TEX2)
More flights by this aircraft type
Origin: KNGP Corpus Christi NAS/Truax
United States
Destination: KCLL Easterwood
United States
More flights between these airports :: More routes between these airports
Route: AGGIE-1
File this flight plan on PilotEdge
Remarks: Request full ILS RWY 35 at KCLL, feeder fix COUTH
Altitude:
(Current/Filed)
15,000ft
Speed:
(Current/Filed)
240kts
Departed: 01-Dec-23 08:05 AM
Arrived: 01-Dec-23 09:06 AM
Distance/Time
Traveled:
181nm/1:01
Distance/Time
To Go:
Arrived

Flight Plot

Page will automatically refresh every two minutes.

Flight plan parsing failed; only flown route is shown


Map Options




Map Legend


Flown Route
Filed Route
Departure Airport
Arrival Airport
Navaid (VOR, NDB)
Fix

Horizontal Profiles

Position Reports

Time Latitude Longitude Heading Altitude Ground
Speed
01-Dec-23 07:53 27.698548 -97.284287 158 22ft 0kts
01-Dec-23 07:54 27.698547 -97.284286 158 22ft 0kts
01-Dec-23 07:55 27.698545 -97.284286 158 22ft 0kts
01-Dec-23 07:56 27.698544 -97.284285 158 22ft 0kts
01-Dec-23 07:57 27.698542 -97.284284 158 22ft 0kts
01-Dec-23 07:58 27.698541 -97.284284 158 22ft 0kts
01-Dec-23 07:59 27.698203 -97.285296 280 22ft 8kts
01-Dec-23 08:00 27.698650 -97.287389 223 22ft 17kts
01-Dec-23 08:01 27.695663 -97.290555 225 22ft 0kts
01-Dec-23 08:02 27.695510 -97.290750 229 22ft 8kts
01-Dec-23 08:03 27.694834 -97.291311 135 22ft 0kts
01-Dec-23 08:04 27.681716 -97.275432 130 589ft 147kts
01-Dec-23 08:05 27.650819 -97.230795 125 1832ft 214kts
01-Dec-23 08:06 27.665921 -97.184128 43 5108ft 153kts
01-Dec-23 08:07 27.702295 -97.169126 348 7843ft 161kts
01-Dec-23 08:08 27.746507 -97.182577 342 10309ft 175kts
01-Dec-23 08:09 27.795106 -97.190520 348 12768ft 170kts
01-Dec-23 08:10 27.840757 -97.201124 348 15040ft 171kts
01-Dec-23 08:11 27.900148 -97.215762 345 15303ft 240kts
01-Dec-23 08:12 27.967059 -97.230229 346 15071ft 245kts
01-Dec-23 08:13 28.032211 -97.244373 350 15116ft 234kts
01-Dec-23 08:14 28.096123 -97.259430 349 15106ft 238kts
01-Dec-23 08:15 28.148198 -97.224730 50 15100ft 240kts
01-Dec-23 08:16 28.199163 -97.175158 35 15101ft 243kts
01-Dec-23 08:17 28.252887 -97.128027 36 15283ft 241kts
01-Dec-23 08:18 28.306610 -97.079762 38 15244ft 251kts
01-Dec-23 08:19 28.360520 -97.030951 40 15095ft 243kts
01-Dec-23 08:20 28.413262 -96.984929 37 15100ft 235kts
01-Dec-23 08:21 28.456826 -96.929109 58 15022ft 237kts
01-Dec-23 08:22 28.491360 -96.864978 56 15044ft 243kts
01-Dec-23 08:23 28.525896 -96.799199 65 15206ft 245kts
01-Dec-23 08:24 28.558159 -96.730026 60 15132ft 245kts
01-Dec-23 08:25 28.591739 -96.663892 59 15065ft 239kts
01-Dec-23 08:26 28.624200 -96.598855 70 15092ft 235kts
01-Dec-23 08:27 28.653571 -96.531667 60 15123ft 238kts
01-Dec-23 08:28 28.687461 -96.465807 62 15191ft 240kts
01-Dec-23 08:29 28.719762 -96.397724 61 15192ft 242kts
01-Dec-23 08:30 28.754427 -96.330532 57 15134ft 249kts
01-Dec-23 08:31 28.810107 -96.315083 335 15177ft 246kts
01-Dec-23 08:32 28.876324 -96.334322 348 15070ft 243kts
01-Dec-23 08:33 28.942209 -96.348018 348 15056ft 238kts
01-Dec-23 08:34 29.005754 -96.363327 348 15344ft 228kts
01-Dec-23 08:36 29.070628 -96.375800 350 15149ft 246kts
01-Dec-23 08:37 29.138076 -96.389323 350 15083ft 245kts
01-Dec-23 08:38 29.205219 -96.400421 352 15093ft 243kts
01-Dec-23 08:39 29.271383 -96.414027 350 15159ft 241kts
01-Dec-23 08:40 29.338167 -96.426849 349 15137ft 243kts
01-Dec-23 08:41 29.404110 -96.444559 347 15127ft 244kts
01-Dec-23 08:42 29.471142 -96.456624 352 15125ft 245kts
01-Dec-23 08:43 29.538885 -96.467072 348 15190ft 243kts
01-Dec-23 08:44 29.605586 -96.483592 352 15176ft 244kts
01-Dec-23 08:45 29.673322 -96.493635 353 15134ft 246kts
01-Dec-23 08:46 29.741099 -96.507414 349 14940ft 247kts
01-Dec-23 08:47 29.808642 -96.519766 351 14938ft 242kts
01-Dec-23 08:48 29.873316 -96.537416 342 15040ft 240kts
01-Dec-23 08:49 29.938925 -96.554443 351 15098ft 243kts
01-Dec-23 08:50 29.994689 -96.526523 68 15079ft 258kts
01-Dec-23 08:51 30.022022 -96.450468 81 15053ft 264kts
01-Dec-23 08:52 30.063570 -96.393795 16 15155ft 244kts
01-Dec-23 08:53 30.128410 -96.365978 21 14919ft 253kts
01-Dec-23 08:54 30.177925 -96.311986 50 14182ft 233kts
01-Dec-23 08:55 30.221119 -96.255256 43 12279ft 225kts
01-Dec-23 08:56 30.266490 -96.208223 48 10328ft 219kts
01-Dec-23 08:57 30.306144 -96.158790 16 8544ft 204kts
01-Dec-23 08:58 30.343672 -96.197176 292 6942ft 187kts
01-Dec-23 08:59 30.362227 -96.252796 289 5192ft 203kts
01-Dec-23 09:00 30.384411 -96.314945 317 2419ft 205kts
01-Dec-23 09:01 30.427640 -96.322986 344 2038ft 119kts
01-Dec-23 09:01 30.455734 -96.330909 347 1960ft 131kts
01-Dec-23 09:03 30.497535 -96.340239 350 1890ft 132kts
01-Dec-23 09:04 30.530277 -96.347134 348 1256ft 113kts
01-Dec-23 09:05 30.561426 -96.354919 347 707ft 117kts
01-Dec-23 09:06 30.588497 -96.360991 350 324ft 36kts
01-Dec-23 09:06 30.589987 -96.360709 83 324ft 0kts
01-Dec-23 09:07 30.589987 -96.360707 83 324ft 0kts
01-Dec-23 09:08 30.590023 -96.360419 81 324ft 6kts
01-Dec-23 09:10 30.590060 -96.360146 81 324ft 0kts

Navigation Log

Ident Type
Flight plan parsing failed, navigation log unavailable